sensor_id;sensor_type;location;lat;lon;timestamp;pressure;altitude;pressure_sealevel;temperature;humidity
77979;BME280;67169;50.268;8.694;2024-02-15T00:01:42;100192.66;;;9.00;100.00
77979;BME280;67169;50.268;8.694;2024-02-15T00:04:08;100183.81;;;8.97;100.00
77979;BME280;67169;50.268;8.694;2024-02-15T00:06:37;100198.09;;;8.97;100.00
77979;BME280;67169;50.268;8.694;2024-02-15T00:09:03;100182.09;;;8.94;100.00
77979;BME280;67169;50.268;8.694;2024-02-15T00:11:30;100190.09;;;8.96;100.00
77979;BME280;67169;50.268;8.694;2024-02-15T00:13:56;100189.25;;;8.94;100.00
77979;BME280;67169;50.268;8.694;2024-02-15T00:16:23;100190.13;;;8.94;100.00
77979;BME280;67169;50.268;8.694;2024-02-15T00:18:49;100191.03;;;8.95;100.00
77979;BME280;67169;50.268;8.694;2024-02-15T00:21:16;100203.53;;;8.96;100.00
77979;BME280;67169;50.268;8.694;2024-02-15T00:23:43;100192.78;;;8.96;100.00
77979;BME280;67169;50.268;8.694;2024-02-15T00:26:10;100192.78;;;8.96;100.00
77979;BME280;67169;50.268;8.694;2024-02-15T00:28:37;100198.09;;;8.97;100.00
77979;BME280;67169;50.268;8.694;2024-02-15T00:31:03;100200.78;;;8.97;100.00
77979;BME280;67169;50.268;8.694;2024-02-15T00:33:30;100196.41;;;8.95;100.00
77979;BME280;67169;50.268;8.694;2024-02-15T00:35:56;100203.44;;;8.99;100.00
77979;BME280;67169;50.268;8.694;2024-02-15T00:38:23;100188.44;;;8.90;100.00
77979;BME280;67169;50.268;8.694;2024-02-15T00:40:51;100200.78;;;8.99;100.00
77979;BME280;67169;50.268;8.694;2024-02-15T00:43:18;100195.50;;;8.94;100.00
77979;BME280;67169;50.268;8.694;2024-02-15T00:45:45;100190.97;;;8.96;100.00
77979;BME280;67169;50.268;8.694;2024-02-15T00:48:12;100196.63;;;8.86;100.00
77979;BME280;67169;50.268;8.694;2024-02-15T00:50:38;100190.31;;;8.88;100.00
77979;BME280;67169;50.268;8.694;2024-02-15T00:53:05;100205.47;;;8.89;100.00
77979;BME280;67169;50.268;8.694;2024-02-15T00:55:31;100179.78;;;8.79;100.00
77979;BME280;67169;50.268;8.694;2024-02-15T00:57:59;100193.94;;;8.84;100.00
77979;BME280;67169;50.268;8.694;2024-02-15T01:00:25;100185.03;;;8.84;100.00
77979;BME280;67169;50.268;8.694;2024-02-15T01:02:52;100186.84;;;8.83;100.00
77979;BME280;67169;50.268;8.694;2024-02-15T01:05:19;100193.94;;;8.84;100.00
77979;BME280;67169;50.268;8.694;2024-02-15T01:07:46;100197.56;;;8.83;100.00
77979;BME280;67169;50.268;8.694;2024-02-15T01:10:14;100198.50;;;8.80;100.00
77979;BME280;67169;50.268;8.694;2024-02-15T01:12:41;100198.56;;;8.79;100.00
77979;BME280;67169;50.268;8.694;2024-02-15T01:15:09;100197.69;;;8.77;100.00
77979;BME280;67169;50.268;8.694;2024-02-15T01:17:35;100195.03;;;8.77;100.00
77979;BME280;67169;50.268;8.694;2024-02-15T01:20:02;100196.75;;;8.79;100.00
77979;BME280;67169;50.268;8.694;2024-02-15T01:22:29;100201.38;;;8.74;100.00
77979;BME280;67169;50.268;8.694;2024-02-15T01:24:55;100207.47;;;8.79;100.00
77979;BME280;67169;50.268;8.694;2024-02-15T01:27:22;100186.16;;;8.75;100.00
77979;BME280;67169;50.268;8.694;2024-02-15T01:29:48;100200.31;;;8.80;100.00
77979;BME280;67169;50.268;8.694;2024-02-15T01:32:16;100177.44;;;8.65;100.00
77979;BME280;67169;50.268;8.694;2024-02-15T01:34:42;100203.13;;;8.75;100.00
77979;BME280;67169;50.268;8.694;2024-02-15T01:37:09;100191.59;;;8.72;100.00
77979;BME280;67169;50.268;8.694;2024-02-15T01:39:35;100205.59;;;8.83;100.00
77979;BME280;67169;50.268;8.694;2024-02-15T01:42:02;100206.53;;;8.82;100.00
77979;BME280;67169;50.268;8.694;2024-02-15T01:44:29;100192.28;;;8.80;100.00
77979;BME280;67169;50.268;8.694;2024-02-15T01:46:55;100201.09;;;8.85;100.00
77979;BME280;67169;50.268;8.694;2024-02-15T01:49:23;100189.63;;;8.78;100.00
77979;BME280;67169;50.268;8.694;2024-02-15T01:51:52;100199.44;;;8.79;100.00
77979;BME280;67169;50.268;8.694;2024-02-15T01:54:22;100179.84;;;8.76;100.00
77979;BME280;67169;50.268;8.694;2024-02-15T01:56:49;100196.75;;;8.81;100.00
77979;BME280;67169;50.268;8.694;2024-02-15T01:59:16;100192.19;;;8.83;100.00
77979;BME280;67169;50.268;8.694;2024-02-15T02:01:42;100186.00;;;8.81;100.00
77979;BME280;67169;50.268;8.694;2024-02-15T02:04:09;100193.94;;;8.84;100.00
77979;BME280;67169;50.268;8.694;2024-02-15T02:06:38;100193.88;;;8.87;100.00
77979;BME280;67169;50.268;8.694;2024-02-15T02:09:06;100200.13;;;8.88;100.00
77979;BME280;67169;50.268;8.694;2024-02-15T02:11:34;100199.22;;;8.89;100.00
77979;BME280;67169;50.268;8.694;2024-02-15T02:14:01;100197.38;;;8.91;100.00
77979;BME280;67169;50.268;8.694;2024-02-15T02:16:28;100190.25;;;8.90;100.00
77979;BME280;67169;50.268;8.694;2024-02-15T02:18:57;100194.75;;;8.88;100.00
77979;BME280;67169;50.268;8.694;2024-02-15T02:21:25;100195.66;;;8.88;100.00
77979;BME280;67169;50.268;8.694;2024-02-15T02:23:56;100191.19;;;8.87;100.00
77979;BME280;67169;50.268;8.694;2024-02-15T02:26:25;100190.19;;;8.93;100.00
77979;BME280;67169;50.268;8.694;2024-02-15T02:28:51;100191.91;;;8.95;100.00
77979;BME280;67169;50.268;8.694;2024-02-15T02:31:19;100200.84;;;8.96;100.00
77979;BME280;67169;50.268;8.694;2024-02-15T02:33:48;100193.66;;;8.96;100.00
77979;BME280;67169;50.268;8.694;2024-02-15T02:36:17;100190.06;;;8.97;100.00
77979;BME280;67169;50.268;8.694;2024-02-15T02:38:43;100186.47;;;8.98;100.00
77979;BME280;67169;50.268;8.694;2024-02-15T02:41:10;100177.56;;;8.96;100.00
77979;BME280;67169;50.268;8.694;2024-02-15T02:43:39;100182.00;;;8.97;100.00
77979;BME280;67169;50.268;8.694;2024-02-15T02:46:05;100182.94;;;8.96;100.00
77979;BME280;67169;50.268;8.694;2024-02-15T02:48:32;100186.47;;;8.98;100.00
77979;BME280;67169;50.268;8.694;2024-02-15T02:50:58;100190.06;;;8.97;100.00
77979;BME280;67169;50.268;8.694;2024-02-15T02:53:25;100178.50;;;8.95;100.00
77979;BME280;67169;50.268;8.694;2024-02-15T02:55:51;100189.19;;;8.97;100.00
77979;BME280;67169;50.268;8.694;2024-02-15T02:58:18;100190.97;;;8.96;100.00
77979;BME280;67169;50.268;8.694;2024-02-15T03:00:46;100191.03;;;8.95;100.00
77979;BME280;67169;50.268;8.694;2024-02-15T03:03:12;100184.75;;;8.94;100.00
77979;BME280;67169;50.268;8.694;2024-02-15T03:05:39;100180.31;;;8.93;100.00
77979;BME280;67169;50.268;8.694;2024-02-15T03:08:08;100176.81;;;8.91;100.00
77979;BME280;67169;50.268;8.694;2024-02-15T03:10:34;100175.16;;;8.86;100.00
77979;BME280;67169;50.268;8.694;2024-02-15T03:13:01;100177.78;;;8.89;100.00
77979;BME280;67169;50.268;8.694;2024-02-15T03:15:30;100159.22;;;8.79;100.00
77979;BME280;67169;50.268;8.694;2024-02-15T03:17:59;100177.78;;;8.87;100.00
77979;BME280;67169;50.268;8.694;2024-02-15T03:20:25;100176.03;;;8.86;100.00
77979;BME280;67169;50.268;8.694;2024-02-15T03:22:52;100175.97;;;8.88;100.00
77979;BME280;67169;50.268;8.694;2024-02-15T03:25:19;100173.41;;;8.85;100.00
77979;BME280;67169;50.268;8.694;2024-02-15T03:27:49;100156.50;;;8.81;100.00
77979;BME280;67169;50.268;8.694;2024-02-15T03:30:17;100173.41;;;8.85;100.00
77979;BME280;67169;50.268;8.694;2024-02-15T03:32:44;100171.59;;;8.85;100.00
77979;BME280;67169;50.268;8.694;2024-02-15T03:35:12;100170.63;;;8.88;100.00
77979;BME280;67169;50.268;8.694;2024-02-15T03:37:39;100168.03;;;8.85;100.00
77979;BME280;67169;50.268;8.694;2024-02-15T03:40:07;100168.91;;;8.85;100.00
77979;BME280;67169;50.268;8.694;2024-02-15T03:42:34;100171.63;;;8.84;100.00
77979;BME280;67169;50.268;8.694;2024-02-15T03:45:01;100166.31;;;8.82;100.00
77979;BME280;67169;50.268;8.694;2024-02-15T03:47:28;100154.66;;;8.83;100.00
77979;BME280;67169;50.268;8.694;2024-02-15T03:49:54;100154.66;;;8.83;100.00
77979;BME280;67169;50.268;8.694;2024-02-15T03:52:23;100158.19;;;8.85;100.00
77979;BME280;67169;50.268;8.694;2024-02-15T03:54:49;100161.75;;;8.86;100.00
77979;BME280;67169;50.268;8.694;2024-02-15T03:57:15;100156.38;;;8.86;100.00
77979;BME280;67169;50.268;8.694;2024-02-15T03:59:43;100146.75;;;8.77;100.00
77979;BME280;67169;50.268;8.694;2024-02-15T04:02:11;100159.09;;;8.84;100.00
77979;BME280;67169;50.268;8.694;2024-02-15T04:04:39;100160.00;;;8.83;100.00
77979;BME280;67169;50.268;8.694;2024-02-15T04:07:07;100153.81;;;8.81;100.00
77979;BME280;67169;50.268;8.694;2024-02-15T04:09:35;100157.34;;;8.83;100.00
77979;BME280;67169;50.268;8.694;2024-02-15T04:12:02;100151.03;;;8.84;100.00
77979;BME280;67169;50.268;8.694;2024-02-15T04:14:28;100149.34;;;8.82;100.00
77979;BME280;67169;50.268;8.694;2024-02-15T04:16:55;100156.50;;;8.81;100.00
77979;BME280;67169;50.268;8.694;2024-02-15T04:19:22;100149.34;;;8.80;100.00
77979;BME280;67169;50.268;8.694;2024-02-15T04:21:49;100146.66;;;8.82;100.00
77979;BME280;67169;50.268;8.694;2024-02-15T04:24:16;100146.81;;;8.75;100.00
77979;BME280;67169;50.268;8.694;2024-02-15T04:26:44;100144.25;;;8.71;100.00
77979;BME280;67169;50.268;8.694;2024-02-15T04:29:12;100160.09;;;8.80;100.00
77979;BME280;67169;50.268;8.694;2024-02-15T04:31:40;100156.59;;;8.76;100.00
77979;BME280;67169;50.268;8.694;2024-02-15T04:34:08;100154.78;;;8.77;100.00
77979;BME280;67169;50.268;8.694;2024-02-15T04:36:36;100152.13;;;8.77;100.00
77979;BME280;67169;50.268;8.694;2024-02-15T04:39:02;100146.75;;;8.77;100.00
77979;BME280;67169;50.268;8.694;2024-02-15T04:41:29;100103.44;;;8.56;100.00
77979;BME280;67169;50.268;8.694;2024-02-15T04:43:57;100144.13;;;8.74;100.00
77979;BME280;67169;50.268;8.694;2024-02-15T04:46:23;100151.31;;;8.73;100.00
77979;BME280;67169;50.268;8.694;2024-02-15T04:48:50;100145.13;;;8.71;100.00
77979;BME280;67169;50.268;8.694;2024-02-15T04:51:17;100143.31;;;8.72;100.00
77979;BME280;67169;50.268;8.694;2024-02-15T04:53:45;100133.50;;;8.71;100.00
77979;BME280;67169;50.268;8.694;2024-02-15T04:56:13;100116.03;;;8.54;100.00
77979;BME280;67169;50.268;8.694;2024-02-15T04:58:40;100128.22;;;8.68;100.00
77979;BME280;67169;50.268;8.694;2024-02-15T05:01:13;100128.19;;;8.69;100.00
77979;BME280;67169;50.268;8.694;2024-02-15T05:03:40;100118.25;;;8.73;100.00
77979;BME280;67169;50.268;8.694;2024-02-15T05:06:07;100122.69;;;8.74;100.00
77979;BME280;67169;50.268;8.694;2024-02-15T05:08:35;100120.00;;;8.74;100.00
77979;BME280;67169;50.268;8.694;2024-02-15T05:11:03;100125.38;;;8.74;100.00
77979;BME280;67169;50.268;8.694;2024-02-15T05:13:31;100120.84;;;8.76;100.00
77979;BME280;67169;50.268;8.694;2024-02-15T05:15:58;100119.97;;;8.75;100.00
77979;BME280;67169;50.268;8.694;2024-02-15T05:18:26;100112.94;;;8.71;100.00
77979;BME280;67169;50.268;8.694;2024-02-15T05:20:52;100106.69;;;8.71;100.00
77979;BME280;67169;50.268;8.694;2024-02-15T05:23:19;100114.75;;;8.71;100.00
77979;BME280;67169;50.268;8.694;2024-02-15T05:25:45;100117.50;;;8.68;100.00
77979;BME280;67169;50.268;8.694;2024-02-15T05:28:12;100118.44;;;8.65;100.00
77979;BME280;67169;50.268;8.694;2024-02-15T05:30:38;100121.94;;;8.69;100.00
77979;BME280;67169;50.268;8.694;2024-02-15T05:33:05;100112.22;;;8.65;100.00
77979;BME280;67169;50.268;8.694;2024-02-15T05:35:34;100123.75;;;8.67;100.00
77979;BME280;67169;50.268;8.694;2024-02-15T05:38:04;100121.06;;;8.67;100.00
77979;BME280;67169;50.268;8.694;2024-02-15T05:40:31;100117.72;;;8.59;100.00
77979;BME280;67169;50.268;8.694;2024-02-15T05:42:58;100124.75;;;8.63;100.00
77979;BME280;67169;50.268;8.694;2024-02-15T05:45:29;100126.53;;;8.64;100.00
77979;BME280;67169;50.268;8.694;2024-02-15T05:47:57;100134.59;;;8.64;100.00
77979;BME280;67169;50.268;8.694;2024-02-15T05:50:24;100130.19;;;8.61;100.00
77979;BME280;67169;50.268;8.694;2024-02-15T05:52:54;100124.81;;;8.60;100.00
77979;BME280;67169;50.268;8.694;2024-02-15T05:55:20;100121.25;;;8.61;100.00
77979;BME280;67169;50.268;8.694;2024-02-15T05:57:47;100126.63;;;8.61;100.00
77979;BME280;67169;50.268;8.694;2024-02-15T06:00:15;100123.00;;;8.62;100.00
77979;BME280;67169;50.268;8.694;2024-02-15T06:02:40;100123.88;;;8.62;100.00
77979;BME280;67169;50.268;8.694;2024-02-15T06:05:07;100119.47;;;8.60;100.00
77979;BME280;67169;50.268;8.694;2024-02-15T06:07:35;100122.13;;;8.61;100.00
77979;BME280;67169;50.268;8.694;2024-02-15T06:10:03;100127.50;;;8.61;100.00
77979;BME280;67169;50.268;8.694;2024-02-15T06:12:30;100129.25;;;8.62;100.00
77979;BME280;67169;50.268;8.694;2024-02-15T06:14:57;100125.63;;;8.63;100.00
77979;BME280;67169;50.268;8.694;2024-02-15T06:17:23;100130.94;;;8.66;100.00
77979;BME280;67169;50.268;8.694;2024-02-15T06:19:50;100118.41;;;8.67;100.00
77979;BME280;67169;50.268;8.694;2024-02-15T06:22:17;100125.41;;;8.72;100.00
77979;BME280;67169;50.268;8.694;2024-02-15T06:24:44;100126.19;;;8.77;100.00
77979;BME280;67169;50.268;8.694;2024-02-15T06:27:11;100124.22;;;8.84;100.00
77979;BME280;67169;50.268;8.694;2024-02-15T06:29:38;100100.34;;;8.73;100.00
77979;BME280;67169;50.268;8.694;2024-02-15T06:32:22;100127.69;;;8.89;100.00
77979;BME280;67169;50.268;8.694;2024-02-15T06:35:06;100116.06;;;8.89;100.00
77979;BME280;67169;50.268;8.694;2024-02-15T06:37:50;100118.69;;;8.90;100.00
77979;BME280;67169;50.268;8.694;2024-02-15T06:40:34;100123.06;;;8.94;100.00
77979;BME280;67169;50.268;8.694;2024-02-15T06:43:02;100111.47;;;8.94;100.00
77979;BME280;67169;50.268;8.694;2024-02-15T06:45:29;100109.63;;;8.96;100.00
77979;BME280;67169;50.268;8.694;2024-02-15T06:47:57;100084.78;;;8.88;100.00
77979;BME280;67169;50.268;8.694;2024-02-15T06:50:24;100102.47;;;8.96;100.00
77979;BME280;67169;50.268;8.694;2024-02-15T06:52:51;100090.13;;;8.89;100.00
77979;BME280;67169;50.268;8.694;2024-02-15T06:55:18;100089.19;;;8.90;100.00
77979;BME280;67169;50.268;8.694;2024-02-15T06:57:47;100079.47;;;8.86;100.00
77979;BME280;67169;50.268;8.694;2024-02-15T07:00:15;100076.06;;;8.79;100.00
77979;BME280;67169;50.268;8.694;2024-02-15T07:02:43;100082.44;;;8.75;100.00
77979;BME280;67169;50.268;8.694;2024-02-15T07:05:10;100084.19;;;8.76;100.00
77979;BME280;67169;50.268;8.694;2024-02-15T07:07:37;100081.63;;;8.72;100.00
77979;BME280;67169;50.268;8.694;2024-02-15T07:10:05;100079.88;;;8.71;100.00
77979;BME280;67169;50.268;8.694;2024-02-15T07:12:31;100083.44;;;8.71;100.00
77979;BME280;67169;50.268;8.694;2024-02-15T07:14:58;100082.47;;;8.74;100.00
77979;BME280;67169;50.268;8.694;2024-02-15T07:17:27;100069.31;;;8.65;100.00
77979;BME280;67169;50.268;8.694;2024-02-15T07:19:54;100084.25;;;8.75;100.00
77979;BME280;67169;50.268;8.694;2024-02-15T07:22:20;100084.19;;;8.76;100.00
77979;BME280;67169;50.268;8.694;2024-02-15T07:24:47;100083.25;;;8.79;100.00
77979;BME280;67169;50.268;8.694;2024-02-15T07:27:14;100074.34;;;8.77;100.00
77979;BME280;67169;50.268;8.694;2024-02-15T07:29:40;100091.09;;;8.87;100.00
77979;BME280;67169;50.268;8.694;2024-02-15T07:32:07;100093.69;;;8.90;100.00
77979;BME280;67169;50.268;8.694;2024-02-15T07:34:35;100094.69;;;8.86;100.00
77979;BME280;67169;50.268;8.694;2024-02-15T07:37:02;100088.41;;;8.87;100.00
77979;BME280;67169;50.268;8.694;2024-02-15T07:39:29;100082.22;;;8.83;100.00
77979;BME280;67169;50.268;8.694;2024-02-15T07:41:55;100093.56;;;8.94;100.00
77979;BME280;67169;50.268;8.694;2024-02-15T07:44:23;100091.88;;;8.90;100.00
77979;BME280;67169;50.268;8.694;2024-02-15T07:46:50;100083.75;;;8.93;100.00
77979;BME280;67169;50.268;8.694;2024-02-15T07:49:17;100083.72;;;8.95;100.00
77979;BME280;67169;50.268;8.694;2024-02-15T07:51:45;100086.28;;;8.99;100.00
77979;BME280;67169;50.268;8.694;2024-02-15T07:54:17;100094.13;;;9.07;100.00
77979;BME280;67169;50.268;8.694;2024-02-15T07:56:46;100073.69;;;9.01;100.00
77979;BME280;67169;50.268;8.694;2024-02-15T07:59:12;100092.75;;;9.25;100.00
77979;BME280;67169;50.268;8.694;2024-02-15T08:01:40;100045.00;;;9.05;100.00
77979;BME280;67169;50.268;8.694;2024-02-15T08:04:06;100073.72;;;9.34;100.00
77979;BME280;67169;50.268;8.694;2024-02-15T08:06:33;100070.72;;;9.45;100.00
77979;BME280;67169;50.268;8.694;2024-02-15T08:09:03;100082.63;;;9.66;100.00
77979;BME280;67169;50.268;8.694;2024-02-15T08:11:30;100085.88;;;9.77;100.00
77979;BME280;67169;50.268;8.694;2024-02-15T08:13:57;100080.66;;;10.02;100.00
77979;BME280;67169;50.268;8.694;2024-02-15T08:16:25;100082.06;;;10.15;100.00
77979;BME280;67169;50.268;8.694;2024-02-15T08:18:52;100076.31;;;9.98;100.00
77979;BME280;67169;50.268;8.694;2024-02-15T08:21:25;100069.59;;;9.83;100.00
77979;BME280;67169;50.268;8.694;2024-02-15T08:23:51;100091.88;;;9.87;100.00
77979;BME280;67169;50.268;8.694;2024-02-15T08:26:19;100067.13;;;9.75;100.00
77979;BME280;67169;50.268;8.694;2024-02-15T08:28:46;100070.47;;;9.84;100.00
77979;BME280;67169;50.268;8.694;2024-02-15T08:31:12;100066.00;;;9.84;100.00
77979;BME280;67169;50.268;8.694;2024-02-15T08:33:40;100067.97;;;9.78;100.00
77979;BME280;67169;50.268;8.694;2024-02-15T08:36:08;100062.63;;;9.76;100.00
77979;BME280;67169;50.268;8.694;2024-02-15T08:38:35;100056.47;;;9.72;100.00
77979;BME280;67169;50.268;8.694;2024-02-15T08:41:02;100055.78;;;9.66;100.00
77979;BME280;67169;50.268;8.694;2024-02-15T08:43:31;100059.16;;;9.72;100.00
77979;BME280;67169;50.268;8.694;2024-02-15T08:45:58;100060.91;;;9.73;100.00
77979;BME280;67169;50.268;8.694;2024-02-15T08:48:26;100059.22;;;9.71;100.00
77979;BME280;67169;50.268;8.694;2024-02-15T08:50:52;100068.94;;;9.75;100.00
77979;BME280;67169;50.268;8.694;2024-02-15T08:53:19;100055.69;;;9.69;100.00
77979;BME280;67169;50.268;8.694;2024-02-15T08:55:47;100052.69;;;9.80;100.00
77979;BME280;67169;50.268;8.694;2024-02-15T08:58:13;100054.50;;;9.79;100.00
77979;BME280;67169;50.268;8.694;2024-02-15T09:00:41;100060.41;;;9.90;100.00
77979;BME280;67169;50.268;8.694;2024-02-15T09:03:10;100062.56;;;10.07;100.00
77979;BME280;67169;50.268;8.694;2024-02-15T09:05:36;100036.00;;;9.98;100.00
77979;BME280;67169;50.268;8.694;2024-02-15T09:08:03;100053.44;;;10.13;100.00
77979;BME280;67169;50.268;8.694;2024-02-15T09:10:30;100063.44;;;10.08;100.00
77979;BME280;67169;50.268;8.694;2024-02-15T09:12:57;100052.69;;;10.08;100.00
77979;BME280;67169;50.268;8.694;2024-02-15T09:15:23;100052.59;;;10.11;100.00
77979;BME280;67169;50.268;8.694;2024-02-15T09:17:51;100039.13;;;10.12;100.00
77979;BME280;67169;50.268;8.694;2024-02-15T09:20:20;100039.94;;;10.16;100.00
77979;BME280;67169;50.268;8.694;2024-02-15T09:22:48;100051.53;;;10.16;100.00
77979;BME280;67169;50.268;8.694;2024-02-15T09:25:15;100044.34;;;10.17;100.00
77979;BME280;67169;50.268;8.694;2024-02-15T09:27:41;100032.25;;;10.32;100.00
77979;BME280;67169;50.268;8.694;2024-02-15T09:30:09;100040.00;;;10.13;100.00
77979;BME280;67169;50.268;8.694;2024-02-15T09:32:37;100021.78;;;10.22;100.00
77979;BME280;67169;50.268;8.694;2024-02-15T09:35:06;100029.34;;;10.39;100.00
77979;BME280;67169;50.268;8.694;2024-02-15T09:37:33;100025.19;;;10.29;100.00
77979;BME280;67169;50.268;8.694;2024-02-15T09:40:00;100017.94;;;10.31;100.00
77979;BME280;67169;50.268;8.694;2024-02-15T09:42:32;100010.75;;;10.32;100.00
77979;BME280;67169;50.268;8.694;2024-02-15T09:45:00;100014.75;;;10.47;100.00
77979;BME280;67169;50.268;8.694;2024-02-15T09:47:30;100004.38;;;10.36;100.00
77979;BME280;67169;50.268;8.694;2024-02-15T09:50:00;100004.19;;;10.40;100.00
77979;BME280;67169;50.268;8.694;2024-02-15T09:52:29;99975.25;;;10.20;100.00
77979;BME280;67169;50.268;8.694;2024-02-15T09:54:58;100001.63;;;10.37;100.00
77979;BME280;67169;50.268;8.694;2024-02-15T09:57:25;99999.03;;;10.34;100.00
77979;BME280;67169;50.268;8.694;2024-02-15T09:59:52;99998.38;;;10.53;100.00
77979;BME280;67169;50.268;8.694;2024-02-15T10:02:19;99998.19;;;10.59;100.00
77979;BME280;67169;50.268;8.694;2024-02-15T10:04:46;100011.22;;;10.71;100.00
77979;BME280;67169;50.268;8.694;2024-02-15T10:07:13;99984.13;;;10.77;100.00
77979;BME280;67169;50.268;8.694;2024-02-15T10:09:41;99992.69;;;11.37;100.00
77979;BME280;67169;50.268;8.694;2024-02-15T10:12:08;99993.25;;;11.69;100.00
77979;BME280;67169;50.268;8.694;2024-02-15T10:14:35;99996.59;;;11.75;100.00
77979;BME280;67169;50.268;8.694;2024-02-15T10:17:06;99984.94;;;11.75;100.00
77979;BME280;67169;50.268;8.694;2024-02-15T10:19:34;99974.25;;;11.50;100.00
77979;BME280;67169;50.268;8.694;2024-02-15T10:22:06;99985.31;;;11.19;100.00
77979;BME280;67169;50.268;8.694;2024-02-15T10:24:33;99962.63;;;11.24;100.00
77979;BME280;67169;50.268;8.694;2024-02-15T10:27:02;99963.72;;;11.44;100.00
77979;BME280;67169;50.268;8.694;2024-02-15T10:29:30;99964.50;;;11.69;100.00
77979;BME280;67169;50.268;8.694;2024-02-15T10:31:58;99946.25;;;11.99;100.00
77979;BME280;67169;50.268;8.694;2024-02-15T10:34:25;99942.88;;;12.16;100.00
77979;BME280;67169;50.268;8.694;2024-02-15T10:36:53;99931.13;;;12.59;98.64
77979;BME280;67169;50.268;8.694;2024-02-15T10:39:22;99923.91;;;12.40;98.24
77979;BME280;67169;50.268;8.694;2024-02-15T10:41:50;99923.34;;;12.52;97.54
77979;BME280;67169;50.268;8.694;2024-02-15T10:44:21;99899.13;;;12.91;96.25
77979;BME280;67169;50.268;8.694;2024-02-15T10:46:49;99899.94;;;13.33;94.37
77979;BME280;67169;50.268;8.694;2024-02-15T10:49:20;99890.13;;;13.11;93.93
77979;BME280;67169;50.268;8.694;2024-02-15T10:51:51;99881.59;;;12.81;93.62
77979;BME280;67169;50.268;8.694;2024-02-15T10:54:31;99881.56;;;13.20;93.36
77979;BME280;67169;50.268;8.694;2024-02-15T10:57:03;99885.03;;;13.43;92.58
77979;BME280;67169;50.268;8.694;2024-02-15T10:59:35;99869.94;;;13.39;92.02
77979;BME280;67169;50.268;8.694;2024-02-15T11:02:13;99870.13;;;13.34;91.27
77979;BME280;67169;50.268;8.694;2024-02-15T11:04:48;99871.47;;;13.25;91.25
77979;BME280;67169;50.268;8.694;2024-02-15T11:07:20;99872.28;;;12.88;91.67
77979;BME280;67169;50.268;8.694;2024-02-15T11:09:47;99884.22;;;12.82;92.26
77979;BME280;67169;50.268;8.694;2024-02-15T11:12:14;99887.22;;;12.56;93.00
77979;BME280;67169;50.268;8.694;2024-02-15T11:14:44;99885.69;;;12.69;93.31
77979;BME280;67169;50.268;8.694;2024-02-15T11:17:10;99885.72;;;12.49;93.97
77979;BME280;67169;50.268;8.694;2024-02-15T11:19:42;99887.88;;;12.20;94.04
77979;BME280;67169;50.268;8.694;2024-02-15T11:22:13;99880.88;;;12.37;95.09
77979;BME280;67169;50.268;8.694;2024-02-15T11:24:47;99872.38;;;12.25;94.92
77979;BME280;67169;50.268;8.694;2024-02-15T11:27:24;99883.28;;;12.22;95.24
77979;BME280;67169;50.268;8.694;2024-02-15T11:29:55;99884.53;;;12.35;95.84
77979;BME280;67169;50.268;8.694;2024-02-15T11:32:35;99868.88;;;12.44;95.30
77979;BME280;67169;50.268;8.694;2024-02-15T11:35:05;99869.13;;;12.38;95.04
77979;BME280;67169;50.268;8.694;2024-02-15T11:37:56;99861.16;;;12.34;95.02
77979;BME280;67169;50.268;8.694;2024-02-15T11:40:27;99856.38;;;12.41;95.41
77979;BME280;67169;50.268;8.694;2024-02-15T11:42:55;99854.72;;;12.18;95.22
77979;BME280;67169;50.268;8.694;2024-02-15T11:45:24;99850.94;;;12.22;95.35
77979;BME280;67169;50.268;8.694;2024-02-15T11:47:52;99848.41;;;12.38;95.79
77979;BME280;67169;50.268;8.694;2024-02-15T11:50:20;99837.22;;;12.68;94.62
77979;BME280;67169;50.268;8.694;2024-02-15T11:52:48;99840.19;;;12.41;94.53
77979;BME280;67169;50.268;8.694;2024-02-15T11:55:18;99832.44;;;12.54;93.98
77979;BME280;67169;50.268;8.694;2024-02-15T11:57:55;99820.28;;;12.64;93.82
77979;BME280;67169;50.268;8.694;2024-02-15T12:00:29;99824.22;;;12.37;93.25
77979;BME280;67169;50.268;8.694;2024-02-15T12:03:16;99823.59;;;12.50;92.91
77979;BME280;67169;50.268;8.694;2024-02-15T12:06:01;99811.50;;;12.59;92.33
77979;BME280;67169;50.268;8.694;2024-02-15T12:08:45;99823.53;;;12.52;92.30
77979;BME280;67169;50.268;8.694;2024-02-15T12:11:29;99823.25;;;12.58;92.41
77979;BME280;67169;50.268;8.694;2024-02-15T12:14:14;99825.56;;;12.47;92.65
77979;BME280;67169;50.268;8.694;2024-02-15T12:17:04;99816.53;;;12.87;91.99
77979;BME280;67169;50.268;8.694;2024-02-15T12:19:49;99800.16;;;12.71;91.91
77979;BME280;67169;50.268;8.694;2024-02-15T12:22:18;99819.94;;;12.72;91.72
77979;BME280;67169;50.268;8.694;2024-02-15T12:24:53;99816.63;;;12.65;91.48
77979;BME280;67169;50.268;8.694;2024-02-15T12:27:20;99799.53;;;12.85;91.23
77979;BME280;67169;50.268;8.694;2024-02-15T12:29:55;99772.63;;;12.83;91.09
77979;BME280;67169;50.268;8.694;2024-02-15T12:32:25;99782.59;;;13.19;90.38
77979;BME280;67169;50.268;8.694;2024-02-15T12:34:53;99776.84;;;13.27;89.96
77979;BME280;67169;50.268;8.694;2024-02-15T12:37:20;99771.44;;;13.08;89.47
77979;BME280;67169;50.268;8.694;2024-02-15T12:39:47;99757.50;;;12.98;89.23
77979;BME280;67169;50.268;8.694;2024-02-15T12:42:14;99764.50;;;13.21;89.05
77979;BME280;67169;50.268;8.694;2024-02-15T12:44:43;99771.78;;;13.38;88.30
77979;BME280;67169;50.268;8.694;2024-02-15T12:47:18;99765.38;;;13.58;87.73
77979;BME280;67169;50.268;8.694;2024-02-15T12:49:46;99762.38;;;13.82;86.82
77979;BME280;67169;50.268;8.694;2024-02-15T12:52:33;99760.34;;;14.04;86.38
77979;BME280;67169;50.268;8.694;2024-02-15T12:55:10;99757.59;;;13.69;85.84
77979;BME280;67169;50.268;8.694;2024-02-15T12:57:36;99755.94;;;13.67;85.87